sensor_id;sensor_type;location;lat;lon;timestamp;P1;durP1;ratioP1;P2;durP2;ratioP2
31043;SDS011;17710;52.520;13.352;2022-09-12T00:01:10;3.58;;;1.63;;
31043;SDS011;17710;52.520;13.352;2022-09-12T00:03:39;2.58;;;1.92;;
31043;SDS011;17710;52.520;13.352;2022-09-12T00:06:06;3.40;;;1.88;;
31043;SDS011;17710;52.520;13.352;2022-09-12T00:08:37;2.97;;;1.48;;
31043;SDS011;17710;52.520;13.352;2022-09-12T00:11:07;3.88;;;1.70;;
31043;SDS011;17710;52.520;13.352;2022-09-12T00:13:35;1.92;;;1.83;;
31043;SDS011;17710;52.520;13.352;2022-09-12T00:16:03;3.55;;;1.77;;
31043;SDS011;17710;52.520;13.352;2022-09-12T00:18:30;4.35;;;1.60;;
31043;SDS011;17710;52.520;13.352;2022-09-12T00:21:02;2.70;;;1.80;;
31043;SDS011;17710;52.520;13.352;2022-09-12T00:23:30;7.25;;;2.40;;
31043;SDS011;17710;52.520;13.352;2022-09-12T00:25:58;1.92;;;1.65;;
31043;SDS011;17710;52.520;13.352;2022-09-12T00:28:24;3.05;;;2.22;;
31043;SDS011;17710;52.520;13.352;2022-09-12T00:30:51;2.42;;;2.08;;
31043;SDS011;17710;52.520;13.352;2022-09-12T00:33:17;2.53;;;2.20;;
31043;SDS011;17710;52.520;13.352;2022-09-12T00:35:47;3.00;;;2.20;;
31043;SDS011;17710;52.520;13.352;2022-09-12T00:38:18;5.70;;;2.15;;
31043;SDS011;17710;52.520;13.352;2022-09-12T00:40:47;4.10;;;2.17;;
31043;SDS011;17710;52.520;13.352;2022-09-12T00:43:14;3.67;;;2.28;;
31043;SDS011;17710;52.520;13.352;2022-09-12T00:45:59;3.05;;;1.80;;
31043;SDS011;17710;52.520;13.352;2022-09-12T00:48:30;3.03;;;2.45;;
31043;SDS011;17710;52.520;13.352;2022-09-12T00:51:02;2.70;;;2.10;;
31043;SDS011;17710;52.520;13.352;2022-09-12T00:53:29;3.60;;;1.90;;
31043;SDS011;17710;52.520;13.352;2022-09-12T00:55:56;3.72;;;1.90;;
31043;SDS011;17710;52.520;13.352;2022-09-12T00:58:24;2.30;;;1.73;;
31043;SDS011;17710;52.520;13.352;2022-09-12T01:00:53;3.60;;;2.08;;
31043;SDS011;17710;52.520;13.352;2022-09-12T01:03:22;3.45;;;2.40;;
31043;SDS011;17710;52.520;13.352;2022-09-12T01:05:51;5.40;;;2.50;;
31043;SDS011;17710;52.520;13.352;2022-09-12T01:08:25;2.70;;;2.08;;
31043;SDS011;17710;52.520;13.352;2022-09-12T01:10:54;3.65;;;2.00;;
31043;SDS011;17710;52.520;13.352;2022-09-12T01:13:22;3.38;;;2.50;;
31043;SDS011;17710;52.520;13.352;2022-09-12T01:15:49;5.10;;;2.60;;
31043;SDS011;17710;52.520;13.352;2022-09-12T01:18:18;4.95;;;2.70;;
31043;SDS011;17710;52.520;13.352;2022-09-12T01:26:58;3.90;;;3.03;;
31043;SDS011;17710;52.520;13.352;2022-09-12T01:29:54;4.95;;;2.60;;
31043;SDS011;17710;52.520;13.352;2022-09-12T01:32:34;5.32;;;2.60;;
31043;SDS011;17710;52.520;13.352;2022-09-12T01:35:11;4.28;;;2.45;;
31043;SDS011;17710;52.520;13.352;2022-09-12T01:37:46;2.90;;;2.55;;
31043;SDS011;17710;52.520;13.352;2022-09-12T01:40:21;9.95;;;2.58;;
31043;SDS011;17710;52.520;13.352;2022-09-12T01:42:52;4.22;;;2.30;;
31043;SDS011;17710;52.520;13.352;2022-09-12T01:45:30;4.03;;;2.40;;
31043;SDS011;17710;52.520;13.352;2022-09-12T01:48:04;6.72;;;3.20;;
31043;SDS011;17710;52.520;13.352;2022-09-12T01:50:43;3.00;;;2.70;;
31043;SDS011;17710;52.520;13.352;2022-09-12T01:55:46;5.28;;;2.53;;
31043;SDS011;17710;52.520;13.352;2022-09-12T01:58:16;4.07;;;2.67;;
31043;SDS011;17710;52.520;13.352;2022-09-12T02:00:49;5.47;;;2.95;;
31043;SDS011;17710;52.520;13.352;2022-09-12T02:03:21;4.53;;;3.25;;
31043;SDS011;17710;52.520;13.352;2022-09-12T02:05:54;4.03;;;2.50;;
31043;SDS011;17710;52.520;13.352;2022-09-12T02:08:25;3.92;;;2.58;;
31043;SDS011;17710;52.520;13.352;2022-09-12T02:10:58;5.32;;;2.92;;
31043;SDS011;17710;52.520;13.352;2022-09-12T02:13:31;3.97;;;3.28;;
31043;SDS011;17710;52.520;13.352;2022-09-12T02:16:02;4.97;;;3.20;;
31043;SDS011;17710;52.520;13.352;2022-09-12T02:18:32;8.20;;;2.90;;
31043;SDS011;17710;52.520;13.352;2022-09-12T02:21:01;5.07;;;2.50;;
31043;SDS011;17710;52.520;13.352;2022-09-12T02:23:31;4.55;;;2.70;;
31043;SDS011;17710;52.520;13.352;2022-09-12T02:26:01;4.32;;;2.95;;
31043;SDS011;17710;52.520;13.352;2022-09-12T02:28:34;6.35;;;3.28;;
31043;SDS011;17710;52.520;13.352;2022-09-12T02:31:05;3.83;;;2.80;;
31043;SDS011;17710;52.520;13.352;2022-09-12T02:33:43;7.38;;;3.55;;
31043;SDS011;17710;52.520;13.352;2022-09-12T02:36:15;9.75;;;3.40;;
31043;SDS011;17710;52.520;13.352;2022-09-12T02:38:53;6.80;;;3.05;;
31043;SDS011;17710;52.520;13.352;2022-09-12T02:41:20;6.55;;;3.33;;
31043;SDS011;17710;52.520;13.352;2022-09-12T02:43:47;4.78;;;2.97;;
31043;SDS011;17710;52.520;13.352;2022-09-12T02:46:17;5.05;;;2.97;;
31043;SDS011;17710;52.520;13.352;2022-09-12T02:48:48;5.03;;;3.40;;
31043;SDS011;17710;52.520;13.352;2022-09-12T02:51:14;5.97;;;3.40;;
31043;SDS011;17710;52.520;13.352;2022-09-12T02:53:42;6.13;;;2.97;;
31043;SDS011;17710;52.520;13.352;2022-09-12T02:56:11;5.70;;;3.42;;
31043;SDS011;17710;52.520;13.352;2022-09-12T02:58:46;3.63;;;3.00;;
31043;SDS011;17710;52.520;13.352;2022-09-12T03:01:16;3.22;;;2.92;;
31043;SDS011;17710;52.520;13.352;2022-09-12T03:03:57;3.78;;;3.47;;
31043;SDS011;17710;52.520;13.352;2022-09-12T03:06:42;4.57;;;2.92;;
31043;SDS011;17710;52.520;13.352;2022-09-12T03:09:17;9.90;;;3.40;;
31043;SDS011;17710;52.520;13.352;2022-09-12T03:12:00;6.88;;;3.08;;
31043;SDS011;17710;52.520;13.352;2022-09-12T03:14:40;3.97;;;2.83;;
31043;SDS011;17710;52.520;13.352;2022-09-12T03:17:18;6.03;;;3.72;;
31043;SDS011;17710;52.520;13.352;2022-09-12T03:19:53;10.25;;;3.75;;
31043;SDS011;17710;52.520;13.352;2022-09-12T03:22:27;5.55;;;3.38;;
31043;SDS011;17710;52.520;13.352;2022-09-12T03:25:05;3.92;;;3.05;;
31043;SDS011;17710;52.520;13.352;2022-09-12T03:27:42;3.15;;;2.85;;
31043;SDS011;17710;52.520;13.352;2022-09-12T03:30:12;4.57;;;3.10;;
31043;SDS011;17710;52.520;13.352;2022-09-12T03:32:39;5.68;;;2.85;;
31043;SDS011;17710;52.520;13.352;2022-09-12T03:35:11;3.50;;;3.00;;
31043;SDS011;17710;52.520;13.352;2022-09-12T03:37:39;4.47;;;3.25;;
31043;SDS011;17710;52.520;13.352;2022-09-12T03:40:06;5.93;;;3.90;;
31043;SDS011;17710;52.520;13.352;2022-09-12T03:42:35;6.60;;;3.22;;
31043;SDS011;17710;52.520;13.352;2022-09-12T03:45:02;3.47;;;3.08;;
31043;SDS011;17710;52.520;13.352;2022-09-12T03:47:32;8.05;;;3.33;;
31043;SDS011;17710;52.520;13.352;2022-09-12T03:49:58;8.93;;;3.15;;
31043;SDS011;17710;52.520;13.352;2022-09-12T03:52:26;4.95;;;3.30;;
31043;SDS011;17710;52.520;13.352;2022-09-12T03:54:52;3.28;;;2.97;;
31043;SDS011;17710;52.520;13.352;2022-09-12T03:57:19;5.45;;;2.75;;
31043;SDS011;17710;52.520;13.352;2022-09-12T03:59:47;4.05;;;2.65;;
31043;SDS011;17710;52.520;13.352;2022-09-12T04:02:13;3.75;;;2.53;;
31043;SDS011;17710;52.520;13.352;2022-09-12T04:04:39;4.63;;;3.17;;
31043;SDS011;17710;52.520;13.352;2022-09-12T04:07:07;3.50;;;2.63;;
31043;SDS011;17710;52.520;13.352;2022-09-12T04:09:40;2.83;;;2.63;;
31043;SDS011;17710;52.520;13.352;2022-09-12T04:12:07;4.72;;;2.97;;
31043;SDS011;17710;52.520;13.352;2022-09-12T04:14:35;4.13;;;2.90;;
31043;SDS011;17710;52.520;13.352;2022-09-12T04:17:01;5.93;;;3.28;;
31043;SDS011;17710;52.520;13.352;2022-09-12T04:19:28;3.33;;;2.78;;
31043;SDS011;17710;52.520;13.352;2022-09-12T04:21:54;8.00;;;3.15;;
31043;SDS011;17710;52.520;13.352;2022-09-12T04:24:21;3.45;;;2.75;;
31043;SDS011;17710;52.520;13.352;2022-09-12T04:26:49;6.97;;;3.28;;
31043;SDS011;17710;52.520;13.352;2022-09-12T04:29:15;4.13;;;2.88;;
31043;SDS011;17710;52.520;13.352;2022-09-12T04:31:42;6.53;;;2.83;;
31043;SDS011;17710;52.520;13.352;2022-09-12T04:34:08;3.67;;;2.50;;
31043;SDS011;17710;52.520;13.352;2022-09-12T04:36:36;3.67;;;3.10;;
31043;SDS011;17710;52.520;13.352;2022-09-12T04:39:02;3.42;;;3.08;;
31043;SDS011;17710;52.520;13.352;2022-09-12T04:41:30;7.85;;;3.58;;
31043;SDS011;17710;52.520;13.352;2022-09-12T04:44:00;6.32;;;3.53;;
31043;SDS011;17710;52.520;13.352;2022-09-12T04:46:29;5.78;;;3.28;;
31043;SDS011;17710;52.520;13.352;2022-09-12T04:49:00;4.10;;;3.70;;
31043;SDS011;17710;52.520;13.352;2022-09-12T04:51:29;7.95;;;4.07;;
31043;SDS011;17710;52.520;13.352;2022-09-12T04:53:58;6.95;;;3.75;;
31043;SDS011;17710;52.520;13.352;2022-09-12T04:56:25;10.95;;;3.85;;
31043;SDS011;17710;52.520;13.352;2022-09-12T04:58:53;7.22;;;3.28;;
31043;SDS011;17710;52.520;13.352;2022-09-12T05:01:23;7.95;;;4.07;;
31043;SDS011;17710;52.520;13.352;2022-09-12T05:03:52;5.43;;;4.05;;
31043;SDS011;17710;52.520;13.352;2022-09-12T05:06:20;4.60;;;4.20;;
31043;SDS011;17710;52.520;13.352;2022-09-12T05:08:50;9.00;;;4.65;;
31043;SDS011;17710;52.520;13.352;2022-09-12T05:11:17;4.55;;;4.13;;
31043;SDS011;17710;52.520;13.352;2022-09-12T05:13:44;7.20;;;4.05;;
31043;SDS011;17710;52.520;13.352;2022-09-12T05:16:11;7.85;;;4.45;;
31043;SDS011;17710;52.520;13.352;2022-09-12T05:18:40;7.75;;;4.30;;
31043;SDS011;17710;52.520;13.352;2022-09-12T05:21:09;6.05;;;4.10;;
31043;SDS011;17710;52.520;13.352;2022-09-12T05:23:39;10.85;;;4.28;;
31043;SDS011;17710;52.520;13.352;2022-09-12T05:26:06;5.00;;;4.38;;
31043;SDS011;17710;52.520;13.352;2022-09-12T05:28:36;6.45;;;4.15;;
31043;SDS011;17710;52.520;13.352;2022-09-12T05:31:04;4.13;;;3.72;;
31043;SDS011;17710;52.520;13.352;2022-09-12T05:33:32;11.73;;;4.43;;
31043;SDS011;17710;52.520;13.352;2022-09-12T05:36:02;4.75;;;3.90;;
31043;SDS011;17710;52.520;13.352;2022-09-12T05:38:30;6.82;;;4.38;;
31043;SDS011;17710;52.520;13.352;2022-09-12T05:41:01;8.30;;;4.07;;
31043;SDS011;17710;52.520;13.352;2022-09-12T05:43:30;4.80;;;4.28;;
31043;SDS011;17710;52.520;13.352;2022-09-12T05:45:59;8.05;;;4.85;;
31043;SDS011;17710;52.520;13.352;2022-09-12T05:48:26;10.85;;;4.70;;
31043;SDS011;17710;52.520;13.352;2022-09-12T05:50:57;7.88;;;4.18;;
31043;SDS011;17710;52.520;13.352;2022-09-12T05:53:27;8.68;;;4.80;;
31043;SDS011;17710;52.520;13.352;2022-09-12T05:56:00;9.43;;;4.45;;
31043;SDS011;17710;52.520;13.352;2022-09-12T05:58:28;8.23;;;4.38;;
31043;SDS011;17710;52.520;13.352;2022-09-12T06:00:54;5.10;;;4.00;;
31043;SDS011;17710;52.520;13.352;2022-09-12T06:03:23;6.20;;;4.40;;
31043;SDS011;17710;52.520;13.352;2022-09-12T06:05:52;7.38;;;4.55;;
31043;SDS011;17710;52.520;13.352;2022-09-12T06:08:19;4.90;;;4.22;;
31043;SDS011;17710;52.520;13.352;2022-09-12T06:10:46;6.97;;;4.45;;
31043;SDS011;17710;52.520;13.352;2022-09-12T06:13:13;5.80;;;4.45;;
31043;SDS011;17710;52.520;13.352;2022-09-12T06:15:39;7.25;;;4.20;;
31043;SDS011;17710;52.520;13.352;2022-09-12T06:18:09;4.45;;;3.97;;
31043;SDS011;17710;52.520;13.352;2022-09-12T06:20:35;7.50;;;5.13;;
31043;SDS011;17710;52.520;13.352;2022-09-12T06:23:02;7.45;;;4.30;;
31043;SDS011;17710;52.520;13.352;2022-09-12T06:25:28;6.15;;;4.45;;
31043;SDS011;17710;52.520;13.352;2022-09-12T06:27:56;6.03;;;4.90;;
31043;SDS011;17710;52.520;13.352;2022-09-12T06:30:23;5.25;;;4.18;;
31043;SDS011;17710;52.520;13.352;2022-09-12T06:32:49;14.10;;;5.25;;
31043;SDS011;17710;52.520;13.352;2022-09-12T06:35:16;6.28;;;4.70;;
31043;SDS011;17710;52.520;13.352;2022-09-12T06:37:43;7.38;;;4.82;;
31043;SDS011;17710;52.520;13.352;2022-09-12T06:40:12;8.32;;;4.72;;
31043;SDS011;17710;52.520;13.352;2022-09-12T06:42:42;7.78;;;5.38;;
31043;SDS011;17710;52.520;13.352;2022-09-12T06:45:10;9.45;;;5.82;;
31043;SDS011;17710;52.520;13.352;2022-09-12T06:47:36;11.27;;;6.00;;
31043;SDS011;17710;52.520;13.352;2022-09-12T06:50:08;8.50;;;6.43;;
31043;SDS011;17710;52.520;13.352;2022-09-12T06:52:35;8.60;;;5.97;;
31043;SDS011;17710;52.520;13.352;2022-09-12T06:55:08;10.05;;;5.47;;
31043;SDS011;17710;52.520;13.352;2022-09-12T06:57:35;12.93;;;6.75;;
31043;SDS011;17710;52.520;13.352;2022-09-12T07:00:07;10.73;;;6.55;;
31043;SDS011;17710;52.520;13.352;2022-09-12T07:02:36;10.32;;;5.88;;
31043;SDS011;17710;52.520;13.352;2022-09-12T07:05:06;14.43;;;6.43;;
31043;SDS011;17710;52.520;13.352;2022-09-12T07:07:40;9.88;;;5.63;;
31043;SDS011;17710;52.520;13.352;2022-09-12T07:10:16;12.32;;;4.97;;
31043;SDS011;17710;52.520;13.352;2022-09-12T07:12:42;9.82;;;5.65;;
31043;SDS011;17710;52.520;13.352;2022-09-12T07:15:11;11.88;;;5.50;;
31043;SDS011;17710;52.520;13.352;2022-09-12T07:17:41;15.75;;;5.57;;
31043;SDS011;17710;52.520;13.352;2022-09-12T07:20:08;12.93;;;5.57;;
31043;SDS011;17710;52.520;13.352;2022-09-12T07:22:34;10.18;;;5.53;;
31043;SDS011;17710;52.520;13.352;2022-09-12T07:25:01;13.18;;;5.45;;
31043;SDS011;17710;52.520;13.352;2022-09-12T07:27:29;14.05;;;6.55;;
31043;SDS011;17710;52.520;13.352;2022-09-12T07:29:56;16.70;;;6.75;;
31043;SDS011;17710;52.520;13.352;2022-09-12T07:32:26;8.93;;;5.65;;
31043;SDS011;17710;52.520;13.352;2022-09-12T07:34:56;10.60;;;7.15;;
31043;SDS011;17710;52.520;13.352;2022-09-12T07:37:22;11.52;;;7.35;;
31043;SDS011;17710;52.520;13.352;2022-09-12T07:39:57;10.45;;;6.93;;
31043;SDS011;17710;52.520;13.352;2022-09-12T07:42:24;10.45;;;6.53;;
31043;SDS011;17710;52.520;13.352;2022-09-12T07:44:52;10.05;;;6.40;;
31043;SDS011;17710;52.520;13.352;2022-09-12T07:47:21;11.80;;;6.28;;
31043;SDS011;17710;52.520;13.352;2022-09-12T07:49:57;8.52;;;5.65;;
31043;SDS011;17710;52.520;13.352;2022-09-12T07:52:24;10.55;;;5.55;;
31043;SDS011;17710;52.520;13.352;2022-09-12T07:54:50;11.20;;;5.13;;
31043;SDS011;17710;52.520;13.352;2022-09-12T07:57:16;15.20;;;5.45;;
31043;SDS011;17710;52.520;13.352;2022-09-12T07:59:43;8.15;;;4.90;;
31043;SDS011;17710;52.520;13.352;2022-09-12T08:02:18;8.82;;;4.88;;
31043;SDS011;17710;52.520;13.352;2022-09-12T08:04:49;8.25;;;3.90;;
31043;SDS011;17710;52.520;13.352;2022-09-12T08:07:29;7.22;;;4.60;;
31043;SDS011;17710;52.520;13.352;2022-09-12T08:09:58;5.95;;;4.20;;
31043;SDS011;17710;52.520;13.352;2022-09-12T08:12:26;9.55;;;5.45;;
31043;SDS011;17710;52.520;13.352;2022-09-12T08:14:56;7.28;;;3.95;;
31043;SDS011;17710;52.520;13.352;2022-09-12T08:17:22;4.88;;;2.95;;
31043;SDS011;17710;52.520;13.352;2022-09-12T08:19:52;4.82;;;3.33;;
31043;SDS011;17710;52.520;13.352;2022-09-12T08:22:19;7.05;;;3.50;;
31043;SDS011;17710;52.520;13.352;2022-09-12T08:24:51;5.82;;;3.13;;
31043;SDS011;17710;52.520;13.352;2022-09-12T08:27:19;4.60;;;2.67;;
31043;SDS011;17710;52.520;13.352;2022-09-12T08:29:53;4.22;;;2.35;;
31043;SDS011;17710;52.520;13.352;2022-09-12T08:32:26;3.80;;;2.17;;
31043;SDS011;17710;52.520;13.352;2022-09-12T08:34:54;3.67;;;1.55;;
31043;SDS011;17710;52.520;13.352;2022-09-12T08:37:28;3.35;;;1.98;;
31043;SDS011;17710;52.520;13.352;2022-09-12T08:40:00;4.70;;;2.50;;
31043;SDS011;17710;52.520;13.352;2022-09-12T08:42:35;3.83;;;2.40;;
31043;SDS011;17710;52.520;13.352;2022-09-12T08:45:15;5.22;;;2.30;;
31043;SDS011;17710;52.520;13.352;2022-09-12T08:47:44;4.85;;;2.00;;
31043;SDS011;17710;52.520;13.352;2022-09-12T08:50:16;6.53;;;1.95;;
31043;SDS011;17710;52.520;13.352;2022-09-12T08:52:52;3.53;;;2.75;;
31043;SDS011;17710;52.520;13.352;2022-09-12T08:55:37;2.60;;;1.30;;
31043;SDS011;17710;52.520;13.352;2022-09-12T08:58:14;6.90;;;1.42;;
31043;SDS011;17710;52.520;13.352;2022-09-12T09:00:53;3.63;;;1.30;;
31043;SDS011;17710;52.520;13.352;2022-09-12T09:03:41;1.92;;;0.85;;
31043;SDS011;17710;52.520;13.352;2022-09-12T09:06:36;4.20;;;1.00;;
31043;SDS011;17710;52.520;13.352;2022-09-12T09:09:20;2.35;;;1.27;;
31043;SDS011;17710;52.520;13.352;2022-09-12T09:11:59;7.88;;;1.38;;
31043;SDS011;17710;52.520;13.352;2022-09-12T09:14:39;5.43;;;1.13;;
31043;SDS011;17710;52.520;13.352;2022-09-12T09:17:20;3.03;;;1.90;;
31043;SDS011;17710;52.520;13.352;2022-09-12T09:19:55;6.53;;;1.58;;
31043;SDS011;17710;52.520;13.352;2022-09-12T09:22:34;3.38;;;1.40;;
31043;SDS011;17710;52.520;13.352;2022-09-12T09:25:10;2.75;;;1.42;;
31043;SDS011;17710;52.520;13.352;2022-09-12T09:27:49;2.95;;;1.60;;
31043;SDS011;17710;52.520;13.352;2022-09-12T09:30:22;3.05;;;1.25;;
31043;SDS011;17710;52.520;13.352;2022-09-12T09:32:51;3.40;;;1.40;;
31043;SDS011;17710;52.520;13.352;2022-09-12T09:35:26;5.97;;;1.60;;
31043;SDS011;17710;52.520;13.352;2022-09-12T09:38:13;4.57;;;1.50;;
31043;SDS011;17710;52.520;13.352;2022-09-12T09:40:50;4.80;;;1.90;;
31043;SDS011;17710;52.520;13.352;2022-09-12T09:43:34;4.32;;;1.77;;
31043;SDS011;17710;52.520;13.352;2022-09-12T09:46:02;3.83;;;1.70;;
31043;SDS011;17710;52.520;13.352;2022-09-12T09:48:30;2.95;;;1.55;;
31043;SDS011;17710;52.520;13.352;2022-09-12T09:51:04;5.47;;;2.05;;
31043;SDS011;17710;52.520;13.352;2022-09-12T09:53:36;4.68;;;1.70;;
31043;SDS011;17710;52.520;13.352;2022-09-12T09:56:12;4.53;;;1.98;;
31043;SDS011;17710;52.520;13.352;2022-09-12T09:58:47;7.43;;;2.42;;
31043;SDS011;17710;52.520;13.352;2022-09-12T10:01:17;8.98;;;5.13;;
31043;SDS011;17710;52.520;13.352;2022-09-12T10:03:50;5.57;;;2.17;;
31043;SDS011;17710;52.520;13.352;2022-09-12T10:06:22;6.22;;;2.00;;
31043;SDS011;17710;52.520;13.352;2022-09-12T10:09:02;5.30;;;1.92;;
31043;SDS011;17710;52.520;13.352;2022-09-12T10:11:42;4.28;;;1.73;;
31043;SDS011;17710;52.520;13.352;2022-09-12T10:14:24;8.75;;;2.47;;
31043;SDS011;17710;52.520;13.352;2022-09-12T10:16:58;6.30;;;1.92;;
31043;SDS011;17710;52.520;13.352;2022-09-12T10:19:34;2.42;;;1.40;;
31043;SDS011;17710;52.520;13.352;2022-09-12T10:22:03;4.38;;;1.40;;
31043;SDS011;17710;52.520;13.352;2022-09-12T10:24:41;4.90;;;2.17;;
31043;SDS011;17710;52.520;13.352;2022-09-12T10:27:13;7.03;;;2.83;;
31043;SDS011;17710;52.520;13.352;2022-09-12T10:29:53;7.35;;;1.80;;
31043;SDS011;17710;52.520;13.352;2022-09-12T10:32:28;4.15;;;1.50;;
31043;SDS011;17710;52.520;13.352;2022-09-12T10:35:00;2.05;;;1.33;;
31043;SDS011;17710;52.520;13.352;2022-09-12T10:37:33;4.65;;;1.85;;
31043;SDS011;17710;52.520;13.352;2022-09-12T10:40:02;3.15;;;1.02;;
31043;SDS011;17710;52.520;13.352;2022-09-12T10:42:44;2.05;;;1.00;;
31043;SDS011;17710;52.520;13.352;2022-09-12T10:45:23;2.20;;;0.90;;
31043;SDS011;17710;52.520;13.352;2022-09-12T10:47:56;2.67;;;1.25;;
31043;SDS011;17710;52.520;13.352;2022-09-12T10:50:28;2.22;;;0.75;;
31043;SDS011;17710;52.520;13.352;2022-09-12T10:53:15;3.83;;;0.77;;
31043;SDS011;17710;52.520;13.352;2022-09-12T10:56:04;1.77;;;1.27;;
31043;SDS011;17710;52.520;13.352;2022-09-12T10:58:35;1.27;;;1.10;;
31043;SDS011;17710;52.520;13.352;2022-09-12T11:01:33;2.58;;;0.80;;
31043;SDS011;17710;52.520;13.352;2022-09-12T11:06:57;11.98;;;1.60;;
31043;SDS011;17710;52.520;13.352;2022-09-12T11:09:57;2.78;;;0.70;;
31043;SDS011;17710;52.520;13.352;2022-09-12T11:12:49;1.38;;;0.80;;
31043;SDS011;17710;52.520;13.352;2022-09-12T11:18:40;0.75;;;0.68;;
31043;SDS011;17710;52.520;13.352;2022-09-12T11:21:33;0.75;;;0.43;;
31043;SDS011;17710;52.520;13.352;2022-09-12T11:24:20;0.70;;;0.57;;
31043;SDS011;17710;52.520;13.352;2022-09-12T11:26:58;1.73;;;0.95;;
31043;SDS011;17710;52.520;13.352;2022-09-12T11:29:39;1.23;;;0.55;;
31043;SDS011;17710;52.520;13.352;2022-09-12T11:32:31;2.50;;;0.88;;
31043;SDS011;17710;52.520;13.352;2022-09-12T11:37:54;1.52;;;0.70;;
31043;SDS011;17710;52.520;13.352;2022-09-12T11:40:35;3.03;;;1.10;;
31043;SDS011;17710;52.520;13.352;2022-09-12T11:43:06;3.58;;;1.58;;
31043;SDS011;17710;52.520;13.352;2022-09-12T11:45:43;2.40;;;0.67;;
31043;SDS011;17710;52.520;13.352;2022-09-12T11:48:15;2.42;;;0.70;;
31043;SDS011;17710;52.520;13.352;2022-09-12T11:51:01;3.60;;;1.10;;
31043;SDS011;17710;52.520;13.352;2022-09-12T11:53:42;1.27;;;0.60;;
31043;SDS011;17710;52.520;13.352;2022-09-12T11:56:20;1.70;;;0.88;;
31043;SDS011;17710;52.520;13.352;2022-09-12T11:58:48;5.55;;;3.92;;
31043;SDS011;17710;52.520;13.352;2022-09-12T12:01:25;1.42;;;0.70;;
31043;SDS011;17710;52.520;13.352;2022-09-12T12:04:00;2.30;;;0.60;;
31043;SDS011;17710;52.520;13.352;2022-09-12T12:06:46;1.08;;;0.57;;
31043;SDS011;17710;52.520;13.352;2022-09-12T12:09:17;1.13;;;0.68;;
31043;SDS011;17710;52.520;13.352;2022-09-12T12:11:47;1.63;;;0.90;;
31043;SDS011;17710;52.520;13.352;2022-09-12T12:14:27;1.65;;;0.90;;
31043;SDS011;17710;52.520;13.352;2022-09-12T12:17:03;1.30;;;0.80;;
31043;SDS011;17710;52.520;13.352;2022-09-12T12:19:39;2.92;;;0.93;;
31043;SDS011;17710;52.520;13.352;2022-09-12T12:22:13;2.47;;;0.95;;
31043;SDS011;17710;52.520;13.352;2022-09-12T12:24:56;2.35;;;0.70;;
31043;SDS011;17710;52.520;13.352;2022-09-12T12:36:41;6.25;;;1.27;;
31043;SDS011;17710;52.520;13.352;2022-09-12T12:51:37;0.95;;;0.60;;
31043;SDS011;17710;52.520;13.352;2022-09-12T12:57:14;0.82;;;0.70;;
31043;SDS011;17710;52.520;13.352;2022-09-12T12:59:46;0.75;;;0.60;;
31043;SDS011;17710;52.520;13.352;2022-09-12T13:04:51;2.45;;;0.63;;
31043;SDS011;17710;52.520;13.352;2022-09-12T13:07:32;0.40;;;0.40;;
31043;SDS011;17710;52.520;13.352;2022-09-12T13:10:07;2.58;;;0.88;;
31043;SDS011;17710;52.520;13.352;2022-09-12T13:12:48;1.60;;;0.60;;
31043;SDS011;17710;52.520;13.352;2022-09-12T13:15:45;1.92;;;0.60;;
31043;SDS011;17710;52.520;13.352;2022-09-12T13:18:15;1.17;;;0.50;;
31043;SDS011;17710;52.520;13.352;2022-09-12T13:20:50;2.50;;;0.60;;
31043;SDS011;17710;52.520;13.352;2022-09-12T13:23:26;0.68;;;0.50;;
31043;SDS011;17710;52.520;13.352;2022-09-12T13:25:56;0.95;;;0.82;;
31043;SDS011;17710;52.520;13.352;2022-09-12T13:28:25;1.38;;;0.60;;
31043;SDS011;17710;52.520;13.352;2022-09-12T13:31:05;1.42;;;1.10;;
31043;SDS011;17710;52.520;13.352;2022-09-12T13:33:42;1.50;;;0.85;;
31043;SDS011;17710;52.520;13.352;2022-09-12T13:36:21;0.70;;;0.57;;
31043;SDS011;17710;52.520;13.352;2022-09-12T13:39:07;3.13;;;0.50;;
31043;SDS011;17710;52.520;13.352;2022-09-12T13:42:01;0.88;;;0.52;;
31043;SDS011;17710;52.520;13.352;2022-09-12T13:44:47;2.30;;;0.55;;
31043;SDS011;17710;52.520;13.352;2022-09-12T13:47:29;3.55;;;0.88;;
31043;SDS011;17710;52.520;13.352;2022-09-12T13:49:58;2.58;;;0.77;;
31043;SDS011;17710;52.520;13.352;2022-09-12T13:52:30;2.53;;;0.90;;
31043;SDS011;17710;52.520;13.352;2022-09-12T13:54:59;5.35;;;1.15;;
31043;SDS011;17710;52.520;13.352;2022-09-12T13:57:36;0.85;;;0.77;;
31043;SDS011;17710;52.520;13.352;2022-09-12T14:00:17;1.88;;;0.70;;
31043;SDS011;17710;52.520;13.352;2022-09-12T14:02:47;2.78;;;0.70;;
31043;SDS011;17710;52.520;13.352;2022-09-12T14:05:23;2.13;;;0.60;;
31043;SDS011;17710;52.520;13.352;2022-09-12T14:07:59;0.57;;;0.40;;
31043;SDS011;17710;52.520;13.352;2022-09-12T14:10:29;2.97;;;0.60;;
31043;SDS011;17710;52.520;13.352;2022-09-12T14:12:59;1.15;;;0.50;;
31043;SDS011;17710;52.520;13.352;2022-09-12T14:15:30;0.57;;;0.45;;
31043;SDS011;17710;52.520;13.352;2022-09-12T14:18:03;1.30;;;0.55;;
31043;SDS011;17710;52.520;13.352;2022-09-12T14:20:34;1.15;;;0.65;;
31043;SDS011;17710;52.520;13.352;2022-09-12T14:23:11;0.40;;;0.40;;
31043;SDS011;17710;52.520;13.352;2022-09-12T14:25:44;0.68;;;0.40;;
31043;SDS011;17710;52.520;13.352;2022-09-12T14:28:17;0.80;;;0.80;;
31043;SDS011;17710;52.520;13.352;2022-09-12T14:30:56;1.40;;;0.60;;
31043;SDS011;17710;52.520;13.352;2022-09-12T14:33:25;0.60;;;0.60;;
31043;SDS011;17710;52.520;13.352;2022-09-12T14:36:05;1.23;;;0.70;;
31043;SDS011;17710;52.520;13.352;2022-09-12T14:38:39;1.65;;;0.60;;
31043;SDS011;17710;52.520;13.352;2022-09-12T14:41:07;1.52;;;0.80;;
31043;SDS011;17710;52.520;13.352;2022-09-12T14:43:40;3.00;;;0.60;;
31043;SDS011;17710;52.520;13.352;2022-09-12T14:46:15;1.02;;;0.60;;
31043;SDS011;17710;52.520;13.352;2022-09-12T14:48:46;1.80;;;0.57;;
31043;SDS011;17710;52.520;13.352;2022-09-12T14:51:21;1.00;;;0.70;;
31043;SDS011;17710;52.520;13.352;2022-09-12T14:53:55;0.77;;;0.50;;
31043;SDS011;17710;52.520;13.352;2022-09-12T14:56:38;0.70;;;0.60;;
31043;SDS011;17710;52.520;13.352;2022-09-12T14:59:19;1.48;;;0.70;;
31043;SDS011;17710;52.520;13.352;2022-09-12T15:04:47;2.53;;;0.90;;
31043;SDS011;17710;52.520;13.352;2022-09-12T15:07:20;4.20;;;3.10;;
31043;SDS011;17710;52.520;13.352;2022-09-12T15:09:55;3.55;;;0.80;;
31043;SDS011;17710;52.520;13.352;2022-09-12T15:12:24;1.33;;;0.73;;
31043;SDS011;17710;52.520;13.352;2022-09-12T15:14:57;2.03;;;0.50;;
31043;SDS011;17710;52.520;13.352;2022-09-12T15:17:37;4.25;;;1.10;;
31043;SDS011;17710;52.520;13.352;2022-09-12T15:20:04;2.50;;;1.15;;
31043;SDS011;17710;52.520;13.352;2022-09-12T15:22:34;1.70;;;0.55;;
31043;SDS011;17710;52.520;13.352;2022-09-12T15:25:06;1.73;;;0.60;;
31043;SDS011;17710;52.520;13.352;2022-09-12T15:27:35;1.55;;;0.88;;
31043;SDS011;17710;52.520;13.352;2022-09-12T15:30:07;0.60;;;0.60;;
31043;SDS011;17710;52.520;13.352;2022-09-12T15:32:41;1.23;;;0.80;;
31043;SDS011;17710;52.520;13.352;2022-09-12T15:35:11;1.13;;;0.70;;
31043;SDS011;17710;52.520;13.352;2022-09-12T15:37:41;1.85;;;0.50;;
31043;SDS011;17710;52.520;13.352;2022-09-12T15:40:12;2.17;;;0.63;;
31043;SDS011;17710;52.520;13.352;2022-09-12T15:42:39;1.13;;;0.60;;
31043;SDS011;17710;52.520;13.352;2022-09-12T15:45:13;0.63;;;0.63;;
31043;SDS011;17710;52.520;13.352;2022-09-12T15:47:47;0.50;;;0.50;;
31043;SDS011;17710;52.520;13.352;2022-09-12T15:50:19;0.70;;;0.70;;
31043;SDS011;17710;52.520;13.352;2022-09-12T15:52:48;1.65;;;0.77;;